Stoutsville, Missouri
Current Conditions -  °F | °C
As of 1:55 AM on Saturday 25 Oct 2014 (Local Time) from KHAE Reporting Station
Broken Clouds Broken Clouds  
Wind Chill: 61°   Ceiling: 3100
Heat Index: 61°   Visibility: 10mi
Dew Point: 59°   Wind: 7mph
Humidity: 94%   Direction: 250°WSW
Pressure: 29.98"   Gusts: NA
Location:  39.55°N, 91.86°W
Report Text: KHAE 250655Z AUTO 25006KT 10SM BKN031 16/15 A2998 RMK AO2
Loading
Personal Weather Stations






























Interactive Weather Map New forecast layout! Learn more

10-Day Weather Forecast

Advertisements
Track Severe Weather on mobile